sensor_id;sensor_type;location;lat;lon;timestamp;P1;durP1;ratioP1;P2;durP2;ratioP2
12838;SDS011;6486;51.034;5.262;2022-07-06T00:01:50;1.83;;;1.30;;
12838;SDS011;6486;51.034;5.262;2022-07-06T00:04:17;3.43;;;1.30;;
12838;SDS011;6486;51.034;5.262;2022-07-06T00:06:43;2.37;;;0.90;;
12838;SDS011;6486;51.034;5.262;2022-07-06T00:09:08;4.80;;;1.37;;
12838;SDS011;6486;51.034;5.262;2022-07-06T00:11:34;2.83;;;1.93;;
12838;SDS011;6486;51.034;5.262;2022-07-06T00:14:00;1.10;;;0.93;;
12838;SDS011;6486;51.034;5.262;2022-07-06T00:16:26;1.10;;;1.10;;
12838;SDS011;6486;51.034;5.262;2022-07-06T00:18:51;3.47;;;1.63;;
12838;SDS011;6486;51.034;5.262;2022-07-06T00:21:17;0.80;;;0.80;;
12838;SDS011;6486;51.034;5.262;2022-07-06T00:23:43;0.70;;;0.70;;
12838;SDS011;6486;51.034;5.262;2022-07-06T00:26:09;1.20;;;1.10;;
12838;SDS011;6486;51.034;5.262;2022-07-06T00:28:35;1.03;;;1.00;;
12838;SDS011;6486;51.034;5.262;2022-07-06T00:31:01;0.67;;;0.63;;
12838;SDS011;6486;51.034;5.262;2022-07-06T00:33:26;1.33;;;0.87;;
12838;SDS011;6486;51.034;5.262;2022-07-06T00:35:52;2.77;;;0.77;;
12838;SDS011;6486;51.034;5.262;2022-07-06T00:38:17;2.67;;;1.20;;
12838;SDS011;6486;51.034;5.262;2022-07-06T00:40:43;0.73;;;0.73;;
12838;SDS011;6486;51.034;5.262;2022-07-06T00:43:09;1.23;;;1.13;;
12838;SDS011;6486;51.034;5.262;2022-07-06T00:45:34;2.10;;;0.90;;
12838;SDS011;6486;51.034;5.262;2022-07-06T00:48:00;1.80;;;0.90;;
12838;SDS011;6486;51.034;5.262;2022-07-06T00:50:26;1.17;;;1.07;;
12838;SDS011;6486;51.034;5.262;2022-07-06T00:55:30;2.50;;;0.90;;
12838;SDS011;6486;51.034;5.262;2022-07-06T00:57:59;2.53;;;1.10;;
12838;SDS011;6486;51.034;5.262;2022-07-06T01:00:27;2.43;;;1.30;;
12838;SDS011;6486;51.034;5.262;2022-07-06T01:02:53;3.20;;;1.30;;
12838;SDS011;6486;51.034;5.262;2022-07-06T01:05:19;2.43;;;1.27;;
12838;SDS011;6486;51.034;5.262;2022-07-06T01:07:46;2.53;;;1.10;;
12838;SDS011;6486;51.034;5.262;2022-07-06T01:10:13;1.30;;;0.90;;
12838;SDS011;6486;51.034;5.262;2022-07-06T01:12:41;3.63;;;1.37;;
12838;SDS011;6486;51.034;5.262;2022-07-06T01:15:12;0.90;;;0.80;;
12838;SDS011;6486;51.034;5.262;2022-07-06T01:17:39;0.87;;;0.80;;
12838;SDS011;6486;51.034;5.262;2022-07-06T01:20:13;2.03;;;0.83;;
12838;SDS011;6486;51.034;5.262;2022-07-06T01:22:39;1.97;;;1.10;;
12838;SDS011;6486;51.034;5.262;2022-07-06T01:25:05;2.97;;;1.30;;
12838;SDS011;6486;51.034;5.262;2022-07-06T01:27:32;1.90;;;0.83;;
12838;SDS011;6486;51.034;5.262;2022-07-06T01:29:59;5.47;;;1.40;;
12838;SDS011;6486;51.034;5.262;2022-07-06T01:32:25;1.43;;;1.13;;
12838;SDS011;6486;51.034;5.262;2022-07-06T01:34:51;1.97;;;0.97;;
12838;SDS011;6486;51.034;5.262;2022-07-06T01:37:17;4.20;;;0.83;;
12838;SDS011;6486;51.034;5.262;2022-07-06T01:39:42;3.13;;;1.00;;
12838;SDS011;6486;51.034;5.262;2022-07-06T01:42:08;1.00;;;0.83;;
12838;SDS011;6486;51.034;5.262;2022-07-06T01:44:33;1.00;;;1.00;;
12838;SDS011;6486;51.034;5.262;2022-07-06T01:46:59;1.43;;;0.83;;
12838;SDS011;6486;51.034;5.262;2022-07-06T01:49:25;1.17;;;1.00;;
12838;SDS011;6486;51.034;5.262;2022-07-06T01:51:51;2.97;;;1.37;;
12838;SDS011;6486;51.034;5.262;2022-07-06T01:54:17;1.50;;;1.40;;
12838;SDS011;6486;51.034;5.262;2022-07-06T01:56:42;1.07;;;1.07;;
12838;SDS011;6486;51.034;5.262;2022-07-06T01:59:08;1.30;;;1.20;;
12838;SDS011;6486;51.034;5.262;2022-07-06T02:01:34;1.90;;;1.00;;
12838;SDS011;6486;51.034;5.262;2022-07-06T02:04:00;1.90;;;1.67;;
12838;SDS011;6486;51.034;5.262;2022-07-06T02:06:26;3.27;;;1.70;;
12838;SDS011;6486;51.034;5.262;2022-07-06T02:08:51;2.37;;;1.90;;
12838;SDS011;6486;51.034;5.262;2022-07-06T02:11:19;0.80;;;0.80;;
12838;SDS011;6486;51.034;5.262;2022-07-06T02:13:45;6.00;;;1.60;;
12838;SDS011;6486;51.034;5.262;2022-07-06T02:16:11;3.83;;;1.40;;
12838;SDS011;6486;51.034;5.262;2022-07-06T02:18:37;1.60;;;1.50;;
12838;SDS011;6486;51.034;5.262;2022-07-06T02:21:03;4.83;;;1.43;;
12838;SDS011;6486;51.034;5.262;2022-07-06T02:23:29;3.23;;;1.30;;
12838;SDS011;6486;51.034;5.262;2022-07-06T02:25:55;1.10;;;1.00;;
12838;SDS011;6486;51.034;5.262;2022-07-06T02:28:20;1.47;;;1.37;;
12838;SDS011;6486;51.034;5.262;2022-07-06T02:30:46;2.50;;;1.23;;
12838;SDS011;6486;51.034;5.262;2022-07-06T02:33:12;1.03;;;1.00;;
12838;SDS011;6486;51.034;5.262;2022-07-06T02:35:38;0.90;;;0.73;;
12838;SDS011;6486;51.034;5.262;2022-07-06T02:38:07;1.13;;;1.00;;
12838;SDS011;6486;51.034;5.262;2022-07-06T02:40:33;1.43;;;1.13;;
12838;SDS011;6486;51.034;5.262;2022-07-06T02:42:58;1.70;;;1.10;;
12838;SDS011;6486;51.034;5.262;2022-07-06T02:45:24;0.90;;;0.70;;
12838;SDS011;6486;51.034;5.262;2022-07-06T02:47:50;2.07;;;1.50;;
12838;SDS011;6486;51.034;5.262;2022-07-06T02:50:16;3.00;;;1.40;;
12838;SDS011;6486;51.034;5.262;2022-07-06T02:52:42;1.70;;;1.20;;
12838;SDS011;6486;51.034;5.262;2022-07-06T02:55:07;1.17;;;1.17;;
12838;SDS011;6486;51.034;5.262;2022-07-06T02:57:33;4.33;;;1.20;;
12838;SDS011;6486;51.034;5.262;2022-07-06T02:59:59;2.57;;;1.40;;
12838;SDS011;6486;51.034;5.262;2022-07-06T03:02:24;1.23;;;1.10;;
12838;SDS011;6486;51.034;5.262;2022-07-06T03:04:50;1.20;;;1.10;;
12838;SDS011;6486;51.034;5.262;2022-07-06T03:07:16;1.33;;;0.97;;
12838;SDS011;6486;51.034;5.262;2022-07-06T03:09:41;1.63;;;1.20;;
12838;SDS011;6486;51.034;5.262;2022-07-06T03:12:07;2.27;;;1.43;;
12838;SDS011;6486;51.034;5.262;2022-07-06T03:14:33;1.07;;;1.07;;
12838;SDS011;6486;51.034;5.262;2022-07-06T03:16:59;4.60;;;1.60;;
12838;SDS011;6486;51.034;5.262;2022-07-06T03:19:25;2.70;;;1.70;;
12838;SDS011;6486;51.034;5.262;2022-07-06T03:21:51;2.53;;;1.47;;
12838;SDS011;6486;51.034;5.262;2022-07-06T03:24:16;1.67;;;1.40;;
12838;SDS011;6486;51.034;5.262;2022-07-06T03:26:42;1.43;;;1.33;;
12838;SDS011;6486;51.034;5.262;2022-07-06T03:29:08;1.60;;;1.30;;
12838;SDS011;6486;51.034;5.262;2022-07-06T03:31:33;2.07;;;1.50;;
12838;SDS011;6486;51.034;5.262;2022-07-06T03:34:00;1.70;;;1.60;;
12838;SDS011;6486;51.034;5.262;2022-07-06T03:36:26;1.73;;;1.53;;
12838;SDS011;6486;51.034;5.262;2022-07-06T03:38:51;2.07;;;1.40;;
12838;SDS011;6486;51.034;5.262;2022-07-06T03:41:17;6.67;;;1.57;;
12838;SDS011;6486;51.034;5.262;2022-07-06T03:43:43;4.33;;;1.40;;
12838;SDS011;6486;51.034;5.262;2022-07-06T03:46:08;1.60;;;1.43;;
12838;SDS011;6486;51.034;5.262;2022-07-06T03:48:34;1.63;;;1.50;;
12838;SDS011;6486;51.034;5.262;2022-07-06T03:51:00;2.07;;;1.03;;
12838;SDS011;6486;51.034;5.262;2022-07-06T03:53:25;3.27;;;2.00;;
12838;SDS011;6486;51.034;5.262;2022-07-06T03:55:51;1.90;;;1.57;;
12838;SDS011;6486;51.034;5.262;2022-07-06T03:58:35;1.73;;;1.20;;
12838;SDS011;6486;51.034;5.262;2022-07-06T04:01:01;1.70;;;1.47;;
12838;SDS011;6486;51.034;5.262;2022-07-06T04:03:27;2.30;;;1.63;;
12838;SDS011;6486;51.034;5.262;2022-07-06T04:05:53;1.33;;;1.23;;
12838;SDS011;6486;51.034;5.262;2022-07-06T04:08:18;1.07;;;0.90;;
12838;SDS011;6486;51.034;5.262;2022-07-06T04:10:45;3.07;;;1.30;;
12838;SDS011;6486;51.034;5.262;2022-07-06T04:13:11;1.27;;;1.17;;
12838;SDS011;6486;51.034;5.262;2022-07-06T04:15:36;1.47;;;0.97;;
12838;SDS011;6486;51.034;5.262;2022-07-06T04:18:02;2.47;;;1.80;;
12838;SDS011;6486;51.034;5.262;2022-07-06T04:20:28;4.97;;;2.00;;
12838;SDS011;6486;51.034;5.262;2022-07-06T04:22:54;1.07;;;1.07;;
12838;SDS011;6486;51.034;5.262;2022-07-06T04:25:20;1.33;;;1.23;;
12838;SDS011;6486;51.034;5.262;2022-07-06T04:27:45;3.53;;;1.53;;
12838;SDS011;6486;51.034;5.262;2022-07-06T04:30:11;2.87;;;1.20;;
12838;SDS011;6486;51.034;5.262;2022-07-06T04:32:38;3.97;;;1.37;;
12838;SDS011;6486;51.034;5.262;2022-07-06T04:35:04;1.40;;;1.10;;
12838;SDS011;6486;51.034;5.262;2022-07-06T04:37:31;4.90;;;1.50;;
12838;SDS011;6486;51.034;5.262;2022-07-06T04:39:57;1.63;;;1.40;;
12838;SDS011;6486;51.034;5.262;2022-07-06T04:42:23;1.60;;;1.50;;
12838;SDS011;6486;51.034;5.262;2022-07-06T04:44:49;3.17;;;1.43;;
12838;SDS011;6486;51.034;5.262;2022-07-06T04:47:16;2.87;;;1.50;;
12838;SDS011;6486;51.034;5.262;2022-07-06T04:49:42;1.83;;;1.67;;
12838;SDS011;6486;51.034;5.262;2022-07-06T04:52:08;1.37;;;1.27;;
12838;SDS011;6486;51.034;5.262;2022-07-06T04:54:34;2.83;;;1.23;;
12838;SDS011;6486;51.034;5.262;2022-07-06T04:56:59;2.00;;;1.80;;
12838;SDS011;6486;51.034;5.262;2022-07-06T04:59:25;2.37;;;1.60;;
12838;SDS011;6486;51.034;5.262;2022-07-06T05:01:51;2.00;;;1.80;;
12838;SDS011;6486;51.034;5.262;2022-07-06T05:04:16;5.77;;;1.70;;
12838;SDS011;6486;51.034;5.262;2022-07-06T05:06:45;2.70;;;1.50;;
12838;SDS011;6486;51.034;5.262;2022-07-06T05:09:12;2.37;;;1.43;;
12838;SDS011;6486;51.034;5.262;2022-07-06T05:11:37;1.50;;;1.00;;
12838;SDS011;6486;51.034;5.262;2022-07-06T05:14:04;2.73;;;1.70;;
12838;SDS011;6486;51.034;5.262;2022-07-06T05:16:30;2.07;;;1.37;;
12838;SDS011;6486;51.034;5.262;2022-07-06T05:18:56;2.83;;;1.40;;
12838;SDS011;6486;51.034;5.262;2022-07-06T05:21:21;1.70;;;1.30;;
12838;SDS011;6486;51.034;5.262;2022-07-06T05:23:47;1.57;;;1.20;;
12838;SDS011;6486;51.034;5.262;2022-07-06T05:26:13;3.03;;;1.50;;
12838;SDS011;6486;51.034;5.262;2022-07-06T05:28:38;5.50;;;1.40;;
12838;SDS011;6486;51.034;5.262;2022-07-06T05:31:04;6.33;;;1.47;;
12838;SDS011;6486;51.034;5.262;2022-07-06T05:33:30;1.50;;;1.40;;
12838;SDS011;6486;51.034;5.262;2022-07-06T05:35:55;2.40;;;1.73;;
12838;SDS011;6486;51.034;5.262;2022-07-06T05:38:21;2.27;;;1.60;;
12838;SDS011;6486;51.034;5.262;2022-07-06T05:40:47;1.50;;;1.40;;
12838;SDS011;6486;51.034;5.262;2022-07-06T05:43:12;2.47;;;2.20;;
12838;SDS011;6486;51.034;5.262;2022-07-06T05:45:38;3.77;;;2.27;;
12838;SDS011;6486;51.034;5.262;2022-07-06T05:48:04;4.03;;;2.30;;
12838;SDS011;6486;51.034;5.262;2022-07-06T05:50:48;4.27;;;1.50;;
12838;SDS011;6486;51.034;5.262;2022-07-06T05:53:14;2.03;;;1.27;;
12838;SDS011;6486;51.034;5.262;2022-07-06T05:55:39;2.17;;;1.47;;
12838;SDS011;6486;51.034;5.262;2022-07-06T05:58:05;4.30;;;1.70;;
12838;SDS011;6486;51.034;5.262;2022-07-06T06:00:31;1.87;;;1.37;;
12838;SDS011;6486;51.034;5.262;2022-07-06T06:02:57;1.43;;;1.20;;
12838;SDS011;6486;51.034;5.262;2022-07-06T06:05:24;2.63;;;1.13;;
12838;SDS011;6486;51.034;5.262;2022-07-06T06:07:49;1.40;;;1.03;;
12838;SDS011;6486;51.034;5.262;2022-07-06T06:10:16;1.37;;;1.27;;
12838;SDS011;6486;51.034;5.262;2022-07-06T06:12:43;1.53;;;1.17;;
12838;SDS011;6486;51.034;5.262;2022-07-06T06:15:09;2.00;;;0.90;;
12838;SDS011;6486;51.034;5.262;2022-07-06T06:17:36;1.30;;;1.00;;
12838;SDS011;6486;51.034;5.262;2022-07-06T06:20:03;2.53;;;0.93;;
12838;SDS011;6486;51.034;5.262;2022-07-06T06:22:49;0.83;;;0.77;;
12838;SDS011;6486;51.034;5.262;2022-07-06T06:25:15;1.60;;;1.40;;
12838;SDS011;6486;51.034;5.262;2022-07-06T06:27:45;1.67;;;1.33;;
12838;SDS011;6486;51.034;5.262;2022-07-06T06:30:11;1.23;;;0.70;;
12838;SDS011;6486;51.034;5.262;2022-07-06T06:32:38;0.80;;;0.80;;
12838;SDS011;6486;51.034;5.262;2022-07-06T06:35:04;1.50;;;1.07;;
12838;SDS011;6486;51.034;5.262;2022-07-06T06:37:30;0.97;;;0.80;;
12838;SDS011;6486;51.034;5.262;2022-07-06T06:39:56;1.80;;;0.50;;
12838;SDS011;6486;51.034;5.262;2022-07-06T06:42:22;0.47;;;0.47;;
12838;SDS011;6486;51.034;5.262;2022-07-06T06:44:47;0.53;;;0.40;;
12838;SDS011;6486;51.034;5.262;2022-07-06T06:47:13;1.13;;;0.50;;
12838;SDS011;6486;51.034;5.262;2022-07-06T06:49:39;3.00;;;0.63;;
12838;SDS011;6486;51.034;5.262;2022-07-06T06:52:05;0.80;;;0.70;;
12838;SDS011;6486;51.034;5.262;2022-07-06T06:54:31;0.50;;;0.30;;
12838;SDS011;6486;51.034;5.262;2022-07-06T06:56:56;0.40;;;0.40;;
12838;SDS011;6486;51.034;5.262;2022-07-06T06:59:22;1.20;;;0.40;;
12838;SDS011;6486;51.034;5.262;2022-07-06T07:01:48;0.67;;;0.67;;
12838;SDS011;6486;51.034;5.262;2022-07-06T07:04:13;1.23;;;0.60;;
12838;SDS011;6486;51.034;5.262;2022-07-06T07:06:39;3.43;;;0.73;;
12838;SDS011;6486;51.034;5.262;2022-07-06T07:09:05;2.30;;;0.90;;
12838;SDS011;6486;51.034;5.262;2022-07-06T07:11:30;1.33;;;1.00;;
12838;SDS011;6486;51.034;5.262;2022-07-06T07:13:56;0.87;;;0.60;;
12838;SDS011;6486;51.034;5.262;2022-07-06T07:16:22;0.77;;;0.73;;
12838;SDS011;6486;51.034;5.262;2022-07-06T07:18:49;1.70;;;0.70;;
12838;SDS011;6486;51.034;5.262;2022-07-06T07:21:15;1.87;;;0.80;;
12838;SDS011;6486;51.034;5.262;2022-07-06T07:23:40;3.57;;;0.50;;
12838;SDS011;6486;51.034;5.262;2022-07-06T07:26:06;0.50;;;0.50;;
12838;SDS011;6486;51.034;5.262;2022-07-06T07:28:32;1.30;;;0.87;;
12838;SDS011;6486;51.034;5.262;2022-07-06T07:30:57;1.33;;;0.80;;
12838;SDS011;6486;51.034;5.262;2022-07-06T07:33:23;2.87;;;0.70;;
12838;SDS011;6486;51.034;5.262;2022-07-06T07:35:49;4.03;;;0.80;;
12838;SDS011;6486;51.034;5.262;2022-07-06T07:38:14;1.77;;;0.27;;
12838;SDS011;6486;51.034;5.262;2022-07-06T07:40:40;0.33;;;0.30;;
12838;SDS011;6486;51.034;5.262;2022-07-06T07:43:05;0.20;;;0.20;;
12838;SDS011;6486;51.034;5.262;2022-07-06T07:45:31;1.23;;;0.23;;
12838;SDS011;6486;51.034;5.262;2022-07-06T07:47:57;0.20;;;0.20;;
12838;SDS011;6486;51.034;5.262;2022-07-06T07:50:22;1.60;;;0.30;;
12838;SDS011;6486;51.034;5.262;2022-07-06T07:52:48;0.40;;;0.40;;
12838;SDS011;6486;51.034;5.262;2022-07-06T07:55:14;0.83;;;0.60;;
12838;SDS011;6486;51.034;5.262;2022-07-06T07:57:39;1.70;;;0.40;;
12838;SDS011;6486;51.034;5.262;2022-07-06T08:00:05;0.53;;;0.47;;
12838;SDS011;6486;51.034;5.262;2022-07-06T08:02:31;1.13;;;0.47;;
12838;SDS011;6486;51.034;5.262;2022-07-06T08:04:57;2.20;;;0.27;;
12838;SDS011;6486;51.034;5.262;2022-07-06T08:07:23;0.23;;;0.23;;
12838;SDS011;6486;51.034;5.262;2022-07-06T08:09:48;0.43;;;0.30;;
12838;SDS011;6486;51.034;5.262;2022-07-06T08:12:14;2.80;;;0.30;;
12838;SDS011;6486;51.034;5.262;2022-07-06T08:14:39;0.40;;;0.40;;
12838;SDS011;6486;51.034;5.262;2022-07-06T08:17:05;0.30;;;0.30;;
12838;SDS011;6486;51.034;5.262;2022-07-06T08:19:31;0.10;;;0.10;;
12838;SDS011;6486;51.034;5.262;2022-07-06T08:21:56;0.83;;;0.73;;
12838;SDS011;6486;51.034;5.262;2022-07-06T08:24:22;2.13;;;0.50;;
12838;SDS011;6486;51.034;5.262;2022-07-06T08:26:48;0.40;;;0.40;;
12838;SDS011;6486;51.034;5.262;2022-07-06T08:29:14;0.20;;;0.20;;
12838;SDS011;6486;51.034;5.262;2022-07-06T08:31:40;0.20;;;0.17;;
12838;SDS011;6486;51.034;5.262;2022-07-06T08:34:06;3.37;;;0.80;;
12838;SDS011;6486;51.034;5.262;2022-07-06T08:36:31;4.40;;;0.40;;
12838;SDS011;6486;51.034;5.262;2022-07-06T08:38:57;0.33;;;0.33;;
12838;SDS011;6486;51.034;5.262;2022-07-06T08:41:24;4.90;;;0.50;;
12838;SDS011;6486;51.034;5.262;2022-07-06T08:43:51;0.23;;;0.23;;
12838;SDS011;6486;51.034;5.262;2022-07-06T08:46:18;0.40;;;0.40;;
12838;SDS011;6486;51.034;5.262;2022-07-06T08:48:45;1.33;;;0.37;;
12838;SDS011;6486;51.034;5.262;2022-07-06T08:51:12;0.83;;;0.43;;
12838;SDS011;6486;51.034;5.262;2022-07-06T08:53:39;0.20;;;0.20;;
12838;SDS011;6486;51.034;5.262;2022-07-06T08:56:09;0.30;;;0.30;;
12838;SDS011;6486;51.034;5.262;2022-07-06T08:58:35;0.23;;;0.23;;
12838;SDS011;6486;51.034;5.262;2022-07-06T09:01:01;0.40;;;0.40;;
12838;SDS011;6486;51.034;5.262;2022-07-06T09:03:27;2.13;;;0.50;;
12838;SDS011;6486;51.034;5.262;2022-07-06T09:05:56;0.57;;;0.57;;
12838;SDS011;6486;51.034;5.262;2022-07-06T09:08:27;0.40;;;0.30;;
12838;SDS011;6486;51.034;5.262;2022-07-06T09:10:53;3.40;;;0.50;;
12838;SDS011;6486;51.034;5.262;2022-07-06T09:13:19;2.53;;;0.60;;
12838;SDS011;6486;51.034;5.262;2022-07-06T09:15:45;0.67;;;0.40;;
12838;SDS011;6486;51.034;5.262;2022-07-06T09:18:10;0.50;;;0.50;;
12838;SDS011;6486;51.034;5.262;2022-07-06T09:20:36;1.50;;;0.43;;
12838;SDS011;6486;51.034;5.262;2022-07-06T09:23:05;2.83;;;0.73;;
12838;SDS011;6486;51.034;5.262;2022-07-06T09:25:34;0.70;;;0.53;;
12838;SDS011;6486;51.034;5.262;2022-07-06T09:28:00;0.30;;;0.30;;
12838;SDS011;6486;51.034;5.262;2022-07-06T09:30:27;0.27;;;0.27;;
12838;SDS011;6486;51.034;5.262;2022-07-06T09:32:55;4.40;;;0.40;;
12838;SDS011;6486;51.034;5.262;2022-07-06T09:35:29;0.50;;;0.50;;
12838;SDS011;6486;51.034;5.262;2022-07-06T09:40:31;2.13;;;0.40;;
12838;SDS011;6486;51.034;5.262;2022-07-06T09:43:15;0.20;;;0.20;;
12838;SDS011;6486;51.034;5.262;2022-07-06T09:45:43;3.73;;;0.70;;
12838;SDS011;6486;51.034;5.262;2022-07-06T09:48:13;1.77;;;0.50;;
12838;SDS011;6486;51.034;5.262;2022-07-06T09:50:44;2.13;;;0.83;;
12838;SDS011;6486;51.034;5.262;2022-07-06T09:53:12;0.60;;;0.53;;
12838;SDS011;6486;51.034;5.262;2022-07-06T09:55:43;0.83;;;0.50;;
12838;SDS011;6486;51.034;5.262;2022-07-06T09:58:10;0.57;;;0.57;;
12838;SDS011;6486;51.034;5.262;2022-07-06T10:00:36;0.40;;;0.40;;
12838;SDS011;6486;51.034;5.262;2022-07-06T10:03:03;0.50;;;0.50;;
12838;SDS011;6486;51.034;5.262;2022-07-06T10:05:30;0.40;;;0.40;;
12838;SDS011;6486;51.034;5.262;2022-07-06T10:08:00;0.80;;;0.40;;
12838;SDS011;6486;51.034;5.262;2022-07-06T10:10:27;0.60;;;0.50;;
12838;SDS011;6486;51.034;5.262;2022-07-06T10:12:56;1.23;;;0.50;;
12838;SDS011;6486;51.034;5.262;2022-07-06T10:15:26;0.60;;;0.60;;
12838;SDS011;6486;51.034;5.262;2022-07-06T10:17:54;0.40;;;0.40;;
12838;SDS011;6486;51.034;5.262;2022-07-06T10:20:20;0.60;;;0.60;;
12838;SDS011;6486;51.034;5.262;2022-07-06T10:22:49;0.30;;;0.30;;
12838;SDS011;6486;51.034;5.262;2022-07-06T10:25:16;0.50;;;0.50;;
12838;SDS011;6486;51.034;5.262;2022-07-06T10:27:42;1.67;;;0.83;;
12838;SDS011;6486;51.034;5.262;2022-07-06T10:30:09;0.70;;;0.63;;
12838;SDS011;6486;51.034;5.262;2022-07-06T10:32:36;2.43;;;0.67;;
12838;SDS011;6486;51.034;5.262;2022-07-06T10:35:04;2.70;;;1.10;;
12838;SDS011;6486;51.034;5.262;2022-07-06T10:37:30;0.60;;;0.40;;
12838;SDS011;6486;51.034;5.262;2022-07-06T10:39:57;0.50;;;0.50;;
12838;SDS011;6486;51.034;5.262;2022-07-06T10:42:42;0.57;;;0.57;;
12838;SDS011;6486;51.034;5.262;2022-07-06T10:50:36;0.80;;;0.50;;
12838;SDS011;6486;51.034;5.262;2022-07-06T10:53:02;3.00;;;0.67;;
12838;SDS011;6486;51.034;5.262;2022-07-06T10:55:37;0.80;;;0.70;;
12838;SDS011;6486;51.034;5.262;2022-07-06T10:58:04;2.20;;;0.70;;
12838;SDS011;6486;51.034;5.262;2022-07-06T11:00:50;0.57;;;0.57;;
12838;SDS011;6486;51.034;5.262;2022-07-06T11:03:30;0.50;;;0.40;;
12838;SDS011;6486;51.034;5.262;2022-07-06T11:06:05;0.73;;;0.60;;
12838;SDS011;6486;51.034;5.262;2022-07-06T11:08:49;0.50;;;0.50;;
12838;SDS011;6486;51.034;5.262;2022-07-06T11:11:57;0.80;;;0.80;;
12838;SDS011;6486;51.034;5.262;2022-07-06T11:14:18;1.73;;;0.50;;
12838;SDS011;6486;51.034;5.262;2022-07-06T11:19:12;0.77;;;0.60;;
12838;SDS011;6486;51.034;5.262;2022-07-06T11:24:16;0.60;;;0.60;;
12838;SDS011;6486;51.034;5.262;2022-07-06T11:26:50;0.60;;;0.60;;
12838;SDS011;6486;51.034;5.262;2022-07-06T11:29:17;2.03;;;0.53;;
12838;SDS011;6486;51.034;5.262;2022-07-06T11:31:47;2.50;;;0.80;;
12838;SDS011;6486;51.034;5.262;2022-07-06T11:34:17;1.50;;;0.47;;
12838;SDS011;6486;51.034;5.262;2022-07-06T11:36:48;1.33;;;0.70;;
12838;SDS011;6486;51.034;5.262;2022-07-06T11:39:14;0.70;;;0.70;;
12838;SDS011;6486;51.034;5.262;2022-07-06T11:41:41;0.77;;;0.77;;
12838;SDS011;6486;51.034;5.262;2022-07-06T11:44:07;1.63;;;0.70;;
12838;SDS011;6486;51.034;5.262;2022-07-06T11:46:33;1.23;;;0.40;;
12838;SDS011;6486;51.034;5.262;2022-07-06T11:49:06;1.03;;;0.50;;
12838;SDS011;6486;51.034;5.262;2022-07-06T11:51:37;0.40;;;0.40;;
12838;SDS011;6486;51.034;5.262;2022-07-06T11:54:08;1.47;;;1.20;;
12838;SDS011;6486;51.034;5.262;2022-07-06T11:56:34;0.87;;;0.73;;
12838;SDS011;6486;51.034;5.262;2022-07-06T11:59:00;0.60;;;0.47;;
12838;SDS011;6486;51.034;5.262;2022-07-06T12:01:27;1.27;;;0.40;;
12838;SDS011;6486;51.034;5.262;2022-07-06T12:03:59;1.20;;;0.60;;
12838;SDS011;6486;51.034;5.262;2022-07-06T12:06:26;1.13;;;0.60;;
12838;SDS011;6486;51.034;5.262;2022-07-06T12:08:56;0.60;;;0.60;;
12838;SDS011;6486;51.034;5.262;2022-07-06T12:11:26;7.53;;;0.80;;
12838;SDS011;6486;51.034;5.262;2022-07-06T12:13:57;1.40;;;0.60;;
12838;SDS011;6486;51.034;5.262;2022-07-06T12:16:31;1.83;;;0.80;;
12838;SDS011;6486;51.034;5.262;2022-07-06T12:19:01;0.70;;;0.70;;
12838;SDS011;6486;51.034;5.262;2022-07-06T12:21:29;4.53;;;0.70;;
12838;SDS011;6486;51.034;5.262;2022-07-06T12:23:55;0.47;;;0.40;;
12838;SDS011;6486;51.034;5.262;2022-07-06T12:26:23;0.50;;;0.50;;
12838;SDS011;6486;51.034;5.262;2022-07-06T12:31:36;1.20;;;0.80;;
12838;SDS011;6486;51.034;5.262;2022-07-06T12:34:03;0.53;;;0.53;;
12838;SDS011;6486;51.034;5.262;2022-07-06T12:36:30;1.53;;;0.67;;
12838;SDS011;6486;51.034;5.262;2022-07-06T12:39:09;0.50;;;0.50;;
12838;SDS011;6486;51.034;5.262;2022-07-06T12:41:43;1.80;;;1.03;;
12838;SDS011;6486;51.034;5.262;2022-07-06T12:44:12;1.23;;;0.60;;
12838;SDS011;6486;51.034;5.262;2022-07-06T12:46:39;0.87;;;0.57;;
12838;SDS011;6486;51.034;5.262;2022-07-06T12:49:22;2.47;;;0.40;;
12838;SDS011;6486;51.034;5.262;2022-07-06T12:52:09;0.93;;;0.50;;
12838;SDS011;6486;51.034;5.262;2022-07-06T13:02:09;0.63;;;0.63;;
12838;SDS011;6486;51.034;5.262;2022-07-06T13:04:42;1.37;;;0.50;;
12838;SDS011;6486;51.034;5.262;2022-07-06T13:07:07;1.03;;;0.70;;
12838;SDS011;6486;51.034;5.262;2022-07-06T13:09:44;2.00;;;0.70;;
12838;SDS011;6486;51.034;5.262;2022-07-06T13:12:10;0.63;;;0.63;;
12838;SDS011;6486;51.034;5.262;2022-07-06T13:14:36;1.90;;;0.63;;
12838;SDS011;6486;51.034;5.262;2022-07-06T13:17:01;0.30;;;0.30;;
12838;SDS011;6486;51.034;5.262;2022-07-06T13:19:28;1.77;;;0.60;;
12838;SDS011;6486;51.034;5.262;2022-07-06T13:21:53;0.93;;;0.83;;
12838;SDS011;6486;51.034;5.262;2022-07-06T13:24:19;2.47;;;0.70;;
12838;SDS011;6486;51.034;5.262;2022-07-06T13:26:45;1.60;;;0.97;;
12838;SDS011;6486;51.034;5.262;2022-07-06T13:29:11;7.97;;;0.77;;
12838;SDS011;6486;51.034;5.262;2022-07-06T13:31:38;0.70;;;0.53;;
12838;SDS011;6486;51.034;5.262;2022-07-06T13:34:04;0.70;;;0.70;;
12838;SDS011;6486;51.034;5.262;2022-07-06T13:36:31;0.67;;;0.67;;
12838;SDS011;6486;51.034;5.262;2022-07-06T13:38:57;1.67;;;0.70;;
12838;SDS011;6486;51.034;5.262;2022-07-06T13:41:22;0.90;;;0.90;;
12838;SDS011;6486;51.034;5.262;2022-07-06T13:43:48;1.30;;;0.97;;
12838;SDS011;6486;51.034;5.262;2022-07-06T13:46:14;0.80;;;0.60;;
12838;SDS011;6486;51.034;5.262;2022-07-06T13:48:41;2.00;;;0.80;;
12838;SDS011;6486;51.034;5.262;2022-07-06T13:51:07;2.83;;;0.80;;
12838;SDS011;6486;51.034;5.262;2022-07-06T13:53:33;2.47;;;0.67;;
12838;SDS011;6486;51.034;5.262;2022-07-06T13:55:59;0.80;;;0.80;;
12838;SDS011;6486;51.034;5.262;2022-07-06T13:58:25;2.10;;;0.90;;
12838;SDS011;6486;51.034;5.262;2022-07-06T14:00:50;1.27;;;0.90;;
12838;SDS011;6486;51.034;5.262;2022-07-06T14:03:16;0.70;;;0.70;;
12838;SDS011;6486;51.034;5.262;2022-07-06T14:05:42;1.77;;;1.20;;
12838;SDS011;6486;51.034;5.262;2022-07-06T14:08:07;1.37;;;1.03;;
12838;SDS011;6486;51.034;5.262;2022-07-06T14:10:33;2.07;;;0.87;;
12838;SDS011;6486;51.034;5.262;2022-07-06T14:12:59;3.50;;;0.90;;
12838;SDS011;6486;51.034;5.262;2022-07-06T14:15:24;0.87;;;0.87;;
12838;SDS011;6486;51.034;5.262;2022-07-06T14:17:50;0.83;;;0.83;;
12838;SDS011;6486;51.034;5.262;2022-07-06T14:20:16;0.97;;;0.97;;
12838;SDS011;6486;51.034;5.262;2022-07-06T14:22:43;2.17;;;1.27;;
12838;SDS011;6486;51.034;5.262;2022-07-06T14:25:09;1.20;;;0.90;;
12838;SDS011;6486;51.034;5.262;2022-07-06T14:27:34;0.90;;;0.90;;
12838;SDS011;6486;51.034;5.262;2022-07-06T14:30:00;1.00;;;0.90;;
12838;SDS011;6486;51.034;5.262;2022-07-06T14:32:28;5.07;;;1.53;;
12838;SDS011;6486;51.034;5.262;2022-07-06T14:34:53;1.53;;;0.77;;
12838;SDS011;6486;51.034;5.262;2022-07-06T14:37:19;0.90;;;0.90;;
12838;SDS011;6486;51.034;5.262;2022-07-06T14:39:45;1.63;;;1.40;;
12838;SDS011;6486;51.034;5.262;2022-07-06T14:42:11;0.87;;;0.87;;
12838;SDS011;6486;51.034;5.262;2022-07-06T14:44:37;2.83;;;1.27;;
12838;SDS011;6486;51.034;5.262;2022-07-06T14:47:03;1.83;;;1.10;;
12838;SDS011;6486;51.034;5.262;2022-07-06T14:49:30;1.67;;;0.97;;
12838;SDS011;6486;51.034;5.262;2022-07-06T14:51:56;3.33;;;1.00;;
12838;SDS011;6486;51.034;5.262;2022-07-06T14:54:23;1.03;;;0.97;;
12838;SDS011;6486;51.034;5.262;2022-07-06T14:56:50;1.27;;;0.80;;
12838;SDS011;6486;51.034;5.262;2022-07-06T14:59:15;1.40;;;1.30;;
12838;SDS011;6486;51.034;5.262;2022-07-06T15:01:41;3.50;;;1.20;;
12838;SDS011;6486;51.034;5.262;2022-07-06T15:04:07;1.93;;;1.20;;
12838;SDS011;6486;51.034;5.262;2022-07-06T15:06:33;1.03;;;1.03;;
12838;SDS011;6486;51.034;5.262;2022-07-06T15:08:59;2.27;;;1.17;;
12838;SDS011;6486;51.034;5.262;2022-07-06T15:11:29;1.00;;;0.93;;
12838;SDS011;6486;51.034;5.262;2022-07-06T15:13:57;1.97;;;1.00;;
12838;SDS011;6486;51.034;5.262;2022-07-06T15:16:23;1.17;;;1.07;;
12838;SDS011;6486;51.034;5.262;2022-07-06T15:18:49;1.33;;;1.17;;
12838;SDS011;6486;51.034;5.262;2022-07-06T15:21:15;0.90;;;0.90;;
12838;SDS011;6486;51.034;5.262;2022-07-06T15:23:41;1.17;;;1.03;;
12838;SDS011;6486;51.034;5.262;2022-07-06T15:26:07;0.90;;;0.87;;